Sturgeon Bay, WI (54235)

2:13 AM CST on December 08, 2016 (GMT -0600)
Leif Everson Observatory | | Change Station

Elev 636 ft 44.83 °N, 87.34 °W | Updated 9 minutes ago

Light Snow
Light Snow
21.4 °F
Feels Like 11 °F
N
10.0
Wind Variable Wind from West
Gusts 10.0 mph

Today
High -- | Low -- °F
--% Chance of Precip.
Yesterday
High -- | Low -- °F
Precip. -- in
Pressure 30.04 in
Visibility 9.0 miles
Clouds Overcast 2500 ft
Windchill 11 °F
Dew Point 13 °F
Humidity 69%
Rainfall 0.00 in
Snow Depth Not available.
7:14 AM 4:08 PM
First Quarter, 61% visible
METAR KSUE 080756Z AUTO 27015G22KT 9SM -SN OVC025 M06/M11 A2997 RMK AO2 PK WND 29027/0714 SLP173 P0000 T10611111 FZRANO
Pressure 30.04 in
Visibility 9.0 miles
Clouds Overcast 2500 ft
Windchill 11 °F
Dew Point 13 °F
Humidity 69%
Rainfall 0.00 in
Snow Depth Not available.
7:14 AM 4:08 PM
First Quarter, 61% visible
METAR KSUE 080756Z AUTO 27015G22KT 9SM -SN OVC025 M06/M11 A2997 RMK AO2 PK WND 29027/0714 SLP173 P0000 T10611111 FZRANO

10-Day Weather Forecast

Almanac

Astronomy

Dec. 08, 2016 Rise Set
Actual Time
Civil Twilight
Nautical Twilight
Astronomical Twilight
Moon
Length of Visible Light
Length of Day
Tomorrow will be .
, % of the Moon is Illuminated

Today's Extremes

State Highs State Lows

Community

WunderPhotos

Upload Photos

1,956,259 photos uploaded!

WunderBlog® & News

Nearby

Air Quality

  Air Quality AQ Index Pollutant
Not available.

Snow Depth

Station Depth Elevation

Earthquake Activity

City Distance Mag. Time & Date
Minimum magnitude displayed is 2.5.

Coastal Water Temperatures

Place Temperature

Stations

Nearby Weather Stations

Station Location Temp. Windchill Dew Point Humidity Wind Precip. Elev Updated Type
                   

Watches & Warnings

There are currently no watches in effect.